createdAt,value
2023-12-23T00:01:21.414Z,7.36
2023-12-23T00:03:50.356Z,7.35
2023-12-23T00:06:18.826Z,7.32
2023-12-23T00:08:47.266Z,7.27
2023-12-23T00:11:15.507Z,7.25
2023-12-23T00:13:44.521Z,7.16
2023-12-23T00:16:13.155Z,7.12
2023-12-23T00:21:40.675Z,7.01
2023-12-23T00:24:09.760Z,6.98
2023-12-23T00:26:38.645Z,6.96
2023-12-23T00:29:07.823Z,6.96
2023-12-23T00:31:37.080Z,6.95
2023-12-23T00:37:13.205Z,6.89
2023-12-23T00:39:42.764Z,6.86
2023-12-23T00:42:11.843Z,6.84
2023-12-23T00:44:40.806Z,6.82
2023-12-23T00:47:10.020Z,6.79
2023-12-23T00:49:39.076Z,6.76
2023-12-23T00:52:08.115Z,6.76
2023-12-23T00:54:40.132Z,6.77
2023-12-23T00:57:09.006Z,6.77
2023-12-23T00:59:38.002Z,6.77
2023-12-23T01:02:07.168Z,6.75
2023-12-23T01:04:36.732Z,6.78
2023-12-23T01:07:06.098Z,6.80
2023-12-23T01:09:34.879Z,6.82
2023-12-23T01:12:03.785Z,6.81
2023-12-23T01:14:32.789Z,6.78
2023-12-23T01:17:01.671Z,6.76
2023-12-23T01:19:30.613Z,6.78
2023-12-23T01:21:59.854Z,6.78
2023-12-23T01:24:31.090Z,6.77
2023-12-23T01:27:00.312Z,6.77
2023-12-23T01:29:29.249Z,6.77
2023-12-23T01:31:58.413Z,6.78
2023-12-23T01:34:26.922Z,6.78
2023-12-23T01:36:55.882Z,6.75
2023-12-23T01:39:26.109Z,6.72
2023-12-23T01:41:55.089Z,6.71
2023-12-23T01:44:24.067Z,6.69
2023-12-23T01:46:58.888Z,6.71
2023-12-23T01:49:30.280Z,6.68
2023-12-23T01:52:02.515Z,6.68
2023-12-23T01:54:32.626Z,6.70
2023-12-23T01:57:01.857Z,6.67
2023-12-23T01:59:31.004Z,6.67
2023-12-23T02:02:01.561Z,6.68
2023-12-23T02:04:30.854Z,6.67
2023-12-23T02:06:59.839Z,6.65
2023-12-23T02:09:28.867Z,6.65
2023-12-23T02:12:25.056Z,6.66
2023-12-23T02:15:11.197Z,6.65
2023-12-23T02:17:46.219Z,6.64
2023-12-23T02:20:15.359Z,6.66
2023-12-23T02:22:44.599Z,6.66
2023-12-23T02:25:13.591Z,6.66
2023-12-23T02:27:52.344Z,6.63
2023-12-23T02:30:22.994Z,6.64
2023-12-23T02:32:53.540Z,6.66
2023-12-23T02:35:29.642Z,6.65
2023-12-23T02:37:58.717Z,6.66
2023-12-23T02:40:27.999Z,6.67
2023-12-23T02:43:01.216Z,6.67
2023-12-23T02:45:30.578Z,6.67
2023-12-23T02:47:59.640Z,6.64
2023-12-23T02:50:28.652Z,6.61
2023-12-23T02:52:57.646Z,6.57
2023-12-23T02:55:26.492Z,6.51
2023-12-23T02:57:55.441Z,6.48
2023-12-23T03:00:24.767Z,6.45
2023-12-23T03:02:53.913Z,6.43
2023-12-23T03:05:23.299Z,6.43
2023-12-23T03:07:52.367Z,6.44
2023-12-23T03:10:21.313Z,6.41
2023-12-23T03:12:50.813Z,6.38
2023-12-23T03:15:19.928Z,6.38
2023-12-23T03:17:48.963Z,6.36
2023-12-23T03:20:18.226Z,6.38
2023-12-23T03:22:50.454Z,6.38
2023-12-23T03:25:19.731Z,6.32
2023-12-23T03:27:48.612Z,6.25
2023-12-23T03:30:17.976Z,6.17
2023-12-23T03:32:48.468Z,6.16
2023-12-23T03:35:18.082Z,6.09
2023-12-23T03:37:47.598Z,6.00
2023-12-23T03:40:16.642Z,5.92
2023-12-23T03:42:45.918Z,5.85
2023-12-23T03:45:15.040Z,5.77
2023-12-23T03:47:44.035Z,5.69
2023-12-23T03:50:13.206Z,5.65
2023-12-23T03:52:42.223Z,5.66
2023-12-23T03:55:14.146Z,5.71
2023-12-23T03:57:45.021Z,5.67
2023-12-23T04:00:14.798Z,5.70
2023-12-23T04:02:45.776Z,5.78
2023-12-23T04:05:18.210Z,5.83
2023-12-23T04:07:50.543Z,5.76
2023-12-23T04:10:20.414Z,5.66
2023-12-23T04:12:49.681Z,5.61
2023-12-23T04:15:18.970Z,5.53
2023-12-23T04:17:48.088Z,5.53
2023-12-23T04:20:17.203Z,5.54
2023-12-23T04:25:51.679Z,5.58
2023-12-23T04:28:26.688Z,5.53
2023-12-23T04:30:58.835Z,5.52
2023-12-23T04:33:27.733Z,5.51
2023-12-23T04:36:02.342Z,5.49
2023-12-23T04:38:33.725Z,5.50
2023-12-23T04:41:03.184Z,5.51
2023-12-23T04:43:35.325Z,5.56
2023-12-23T04:46:07.595Z,5.58
2023-12-23T04:48:36.709Z,5.54
2023-12-23T04:51:06.227Z,5.56
2023-12-23T04:53:35.280Z,5.47
2023-12-23T04:56:04.525Z,5.45
2023-12-23T04:58:33.470Z,5.44
2023-12-23T05:01:03.340Z,5.46
2023-12-23T05:03:48.601Z,5.46
2023-12-23T05:06:17.778Z,5.46
2023-12-23T05:08:46.867Z,5.47
2023-12-23T05:11:16.132Z,5.46
2023-12-23T05:13:45.225Z,5.46
2023-12-23T05:16:14.731Z,5.42
2023-12-23T05:18:43.762Z,5.41
2023-12-23T05:21:12.739Z,5.41
2023-12-23T05:23:42.725Z,5.42
2023-12-23T05:26:14.418Z,5.43
2023-12-23T05:28:43.530Z,5.40
2023-12-23T05:31:12.646Z,5.40
2023-12-23T05:33:41.838Z,5.37
2023-12-23T05:36:17.704Z,5.29
2023-12-23T05:38:50.018Z,5.16
2023-12-23T05:41:27.551Z,5.05
2023-12-23T05:43:56.563Z,4.89
2023-12-23T05:46:25.692Z,4.77
2023-12-23T05:48:54.876Z,4.66
2023-12-23T05:51:24.102Z,4.55
2023-12-23T05:53:53.358Z,4.49
2023-12-23T05:56:24.223Z,4.39
2023-12-23T05:58:53.862Z,4.35
2023-12-23T06:01:22.849Z,4.34
2023-12-23T06:03:52.502Z,4.35
2023-12-23T06:06:21.650Z,4.27
2023-12-23T06:08:50.838Z,4.22
2023-12-23T06:11:19.994Z,4.16
2023-12-23T06:13:49.067Z,4.03
2023-12-23T06:16:17.982Z,3.92
2023-12-23T06:18:47.038Z,3.75
2023-12-23T06:21:16.018Z,3.68
2023-12-23T06:23:44.939Z,3.66
2023-12-23T06:26:14.493Z,3.64
2023-12-23T06:28:43.702Z,3.67
2023-12-23T06:31:12.744Z,3.72
2023-12-23T06:33:41.876Z,3.78
2023-12-23T06:36:13.939Z,3.85
2023-12-23T06:38:43.449Z,3.86
2023-12-23T06:41:15.701Z,3.79
2023-12-23T06:43:51.537Z,3.82
2023-12-23T06:46:22.282Z,3.91
2023-12-23T06:48:52.986Z,3.94
2023-12-23T06:51:22.282Z,3.97
2023-12-23T06:53:52.679Z,3.94
2023-12-23T06:56:22.652Z,3.94
2023-12-23T06:58:51.739Z,3.94
2023-12-23T07:01:20.733Z,3.91
2023-12-23T07:03:49.654Z,3.85
2023-12-23T07:06:18.533Z,3.84
2023-12-23T07:11:51.889Z,3.89
2023-12-23T07:14:20.995Z,3.90
2023-12-23T07:16:50.147Z,3.89
2023-12-23T07:19:19.435Z,3.87
2023-12-23T07:21:50.684Z,3.83
2023-12-23T07:24:19.685Z,3.84
2023-12-23T07:29:52.959Z,3.86
2023-12-23T07:32:22.133Z,3.85
2023-12-23T07:34:51.195Z,3.82
2023-12-23T07:37:20.080Z,3.78
2023-12-23T07:39:49.081Z,3.72
2023-12-23T07:42:18.070Z,3.61
2023-12-23T07:44:47.053Z,3.59
2023-12-23T07:47:15.991Z,3.58
2023-12-23T07:49:44.973Z,3.59
2023-12-23T07:52:14.063Z,3.47
2023-12-23T07:54:43.105Z,3.26
2023-12-23T07:57:14.484Z,3.05
2023-12-23T07:59:45.572Z,2.88
2023-12-23T08:02:14.839Z,2.71
2023-12-23T08:04:44.192Z,2.62
2023-12-23T08:07:13.548Z,2.49
2023-12-23T08:09:43.768Z,2.42
2023-12-23T08:12:13.473Z,2.39
2023-12-23T08:14:42.488Z,2.32
2023-12-23T08:17:12.627Z,2.19
2023-12-23T08:19:41.712Z,2.15
2023-12-23T08:22:10.991Z,2.15
2023-12-23T08:24:40.121Z,2.16
2023-12-23T08:27:09.955Z,2.21
2023-12-23T08:29:38.980Z,2.22
2023-12-23T08:32:08.814Z,2.19
2023-12-23T08:34:37.721Z,2.15
2023-12-23T08:37:06.787Z,2.12
2023-12-23T08:39:35.711Z,2.14
2023-12-23T08:42:04.445Z,2.15
2023-12-23T08:44:33.389Z,2.16
2023-12-23T08:47:03.692Z,2.12
2023-12-23T08:49:32.744Z,2.09
2023-12-23T08:52:01.585Z,2.11
2023-12-23T08:54:30.679Z,2.09
2023-12-23T08:56:59.687Z,2.09
2023-12-23T08:59:28.682Z,2.10
2023-12-23T09:01:57.583Z,2.11
2023-12-23T09:04:26.525Z,2.13
2023-12-23T09:06:55.336Z,2.11
2023-12-23T09:09:24.188Z,2.08
2023-12-23T09:11:53.222Z,2.06
2023-12-23T09:14:22.454Z,2.07
2023-12-23T09:16:51.455Z,2.08
2023-12-23T09:19:20.444Z,2.12
2023-12-23T09:21:49.552Z,2.13
2023-12-23T09:24:18.485Z,2.10
2023-12-23T09:26:47.396Z,2.10
2023-12-23T09:29:16.434Z,2.11
2023-12-23T09:31:45.550Z,2.11
2023-12-23T09:34:14.522Z,2.04
2023-12-23T09:40:03.580Z,1.96
2023-12-23T09:42:33.529Z,1.93
2023-12-23T09:45:03.615Z,1.90
2023-12-23T09:47:32.956Z,1.91
2023-12-23T09:50:05.093Z,1.84
2023-12-23T09:52:36.596Z,1.80
2023-12-23T09:55:07.120Z,1.79
2023-12-23T09:57:37.453Z,1.85
2023-12-23T10:00:07.828Z,1.82
2023-12-23T10:02:36.762Z,1.82
2023-12-23T10:05:06.182Z,1.87
2023-12-23T10:07:35.355Z,1.94
2023-12-23T10:10:04.442Z,1.96
2023-12-23T10:12:33.381Z,1.96
2023-12-23T10:15:03.585Z,1.94
2023-12-23T10:17:35.199Z,1.94
2023-12-23T10:20:05.794Z,1.96
2023-12-23T10:22:34.692Z,2.01
2023-12-23T10:25:03.969Z,2.04
2023-12-23T10:27:35.795Z,2.07
2023-12-23T10:30:13.538Z,2.10
2023-12-23T10:32:44.747Z,2.12
2023-12-23T10:35:20.697Z,2.17
2023-12-23T10:37:55.228Z,2.18
2023-12-23T10:40:29.709Z,2.21
2023-12-23T10:43:03.500Z,2.25
2023-12-23T10:45:37.211Z,2.25
2023-12-23T10:48:09.394Z,2.25
2023-12-23T10:50:38.589Z,2.25
2023-12-23T10:53:14.110Z,2.23
2023-12-23T10:55:44.591Z,2.21
2023-12-23T10:58:15.808Z,2.16
2023-12-23T11:00:49.320Z,2.07
2023-12-23T11:03:18.754Z,2.04
2023-12-23T11:05:50.627Z,2.01
2023-12-23T11:08:26.705Z,1.94
2023-12-23T11:14:02.165Z,1.88
2023-12-23T11:16:32.257Z,1.88
2023-12-23T11:19:02.080Z,1.87
2023-12-23T11:21:32.152Z,1.92
2023-12-23T11:24:04.795Z,1.94
2023-12-23T11:26:43.633Z,1.94
2023-12-23T11:29:17.210Z,1.77
2023-12-23T11:31:46.369Z,1.71
2023-12-23T11:34:21.920Z,1.72
2023-12-23T11:36:51.897Z,1.71
2023-12-23T11:39:20.924Z,1.63
2023-12-23T11:41:50.623Z,1.53
2023-12-23T11:44:21.179Z,1.49
2023-12-23T11:46:52.520Z,1.46
2023-12-23T11:49:21.674Z,1.47
2023-12-23T11:51:53.033Z,1.50
2023-12-23T11:54:22.060Z,1.48
2023-12-23T11:56:53.615Z,1.43
2023-12-23T11:59:22.591Z,1.43
2023-12-23T12:01:52.159Z,1.41
2023-12-23T12:04:21.301Z,1.42
2023-12-23T12:06:50.262Z,1.44
2023-12-23T12:09:22.360Z,1.50
2023-12-23T12:11:51.396Z,1.49
2023-12-23T12:14:20.685Z,1.43
2023-12-23T12:16:49.788Z,1.34
2023-12-23T12:19:19.247Z,1.32
2023-12-23T12:21:48.222Z,1.35
2023-12-23T12:24:17.265Z,1.36
2023-12-23T12:26:48.610Z,1.36
2023-12-23T12:29:17.495Z,1.31
2023-12-23T12:31:46.422Z,1.14
2023-12-23T12:34:15.843Z,1.07
2023-12-23T12:36:45.508Z,1.02
2023-12-23T12:39:16.017Z,0.97
2023-12-23T12:41:45.079Z,0.86
2023-12-23T12:44:14.282Z,0.81
2023-12-23T12:46:43.911Z,0.82
2023-12-23T12:49:14.547Z,0.83
2023-12-23T12:51:44.965Z,0.81
2023-12-23T12:54:13.817Z,0.75
2023-12-23T12:56:43.065Z,0.65
2023-12-23T12:59:12.060Z,0.54
2023-12-23T13:01:41.158Z,0.45
2023-12-23T13:04:10.403Z,0.36
2023-12-23T13:06:39.201Z,0.31
2023-12-23T13:09:09.162Z,0.25
2023-12-23T13:11:38.700Z,0.17
2023-12-23T13:14:07.609Z,0.16
2023-12-23T13:16:36.760Z,0.17
2023-12-23T13:19:05.740Z,0.16
2023-12-23T13:21:35.281Z,0.13
2023-12-23T13:24:05.526Z,0.07
2023-12-23T13:26:34.501Z,0.02
2023-12-23T13:29:03.752Z,0.01
2023-12-23T13:31:32.997Z,-0.02
2023-12-23T13:34:02.000Z,-0.03
2023-12-23T13:36:30.833Z,-0.02
2023-12-23T13:38:59.628Z,-0.01
2023-12-23T13:41:30.505Z,-0.01
2023-12-23T13:43:59.862Z,-0.00
2023-12-23T13:46:28.836Z,-0.05
2023-12-23T13:48:57.961Z,-0.05
2023-12-23T13:51:28.050Z,-0.07
2023-12-23T13:53:57.518Z,-0.11
2023-12-23T13:56:26.518Z,-0.14
2023-12-23T13:58:55.812Z,-0.21
2023-12-23T14:01:25.020Z,-0.28
2023-12-23T14:03:54.191Z,-0.31
2023-12-23T14:06:23.159Z,-0.34
2023-12-23T14:08:52.159Z,-0.35
2023-12-23T14:11:21.059Z,-0.37
2023-12-23T14:13:49.862Z,-0.41
2023-12-23T14:16:19.731Z,-0.49
2023-12-23T14:18:48.816Z,-0.52
2023-12-23T14:21:17.780Z,-0.52
2023-12-23T14:26:47.604Z,-0.63
2023-12-23T14:29:16.499Z,-0.70
2023-12-23T14:31:45.480Z,-0.74
2023-12-23T14:34:15.076Z,-0.81
2023-12-23T14:36:50.871Z,-0.87
2023-12-23T14:39:24.527Z,-0.93
2023-12-23T14:41:54.263Z,-1.01
2023-12-23T14:44:23.506Z,-1.03
2023-12-23T14:46:52.471Z,-1.04
2023-12-23T14:49:21.252Z,-1.08
2023-12-23T14:51:50.334Z,-1.11
2023-12-23T14:54:19.480Z,-1.13
2023-12-23T14:56:48.514Z,-1.15
2023-12-23T14:59:17.529Z,-1.22
2023-12-23T15:01:46.674Z,-1.27
2023-12-23T15:04:16.384Z,-1.29
2023-12-23T15:06:45.323Z,-1.31
2023-12-23T15:09:14.380Z,-1.35
2023-12-23T15:11:43.158Z,-1.43
2023-12-23T15:14:12.737Z,-1.48
2023-12-23T15:16:41.633Z,-1.51
2023-12-23T15:19:10.619Z,-1.57
2023-12-23T15:21:39.495Z,-1.62
2023-12-23T15:24:10.027Z,-1.64
2023-12-23T15:26:38.979Z,-1.73
2023-12-23T15:29:08.181Z,-1.75
2023-12-23T15:31:37.037Z,-1.75
2023-12-23T15:34:06.211Z,-1.78
2023-12-23T15:36:35.190Z,-1.80
2023-12-23T15:39:04.400Z,-1.81
2023-12-23T15:41:33.579Z,-1.82
2023-12-23T15:44:03.817Z,-1.79
2023-12-23T15:46:33.086Z,-1.77
2023-12-23T15:49:02.132Z,-1.84
2023-12-23T15:51:31.255Z,-1.91
2023-12-23T15:56:27.889Z,-2.08
2023-12-23T15:58:57.197Z,-2.10
2023-12-23T16:01:26.302Z,-2.08
2023-12-23T16:03:58.198Z,-2.11
2023-12-23T16:06:27.319Z,-2.19
2023-12-23T16:08:56.361Z,-2.23
2023-12-23T16:11:25.404Z,-2.23
2023-12-23T16:17:04.001Z,-2.27
2023-12-23T16:19:35.882Z,-2.30
2023-12-23T16:22:06.569Z,-2.29
2023-12-23T16:27:39.628Z,-2.21
2023-12-23T16:30:09.571Z,-2.18
2023-12-23T16:32:38.761Z,-2.16
2023-12-23T16:35:08.801Z,-2.13
2023-12-23T16:37:38.191Z,-2.13
2023-12-23T16:40:23.556Z,-2.09
2023-12-23T16:42:52.764Z,-2.07
2023-12-23T16:45:21.903Z,-2.04
2023-12-23T16:47:54.930Z,-2.04
2023-12-23T16:50:24.532Z,-2.09
2023-12-23T16:52:56.509Z,-2.15
2023-12-23T16:55:41.460Z,-2.18
2023-12-23T16:58:11.343Z,-2.17
2023-12-23T17:00:42.248Z,-2.17
2023-12-23T17:03:11.244Z,-2.15
2023-12-23T17:05:40.351Z,-2.12
2023-12-23T17:08:09.744Z,-2.11
2023-12-23T17:10:38.596Z,-2.11
2023-12-23T17:13:08.195Z,-2.11
2023-12-23T17:15:37.156Z,-2.13
2023-12-23T17:21:18.376Z,-2.12
2023-12-23T17:23:47.418Z,-2.10
2023-12-23T17:26:16.467Z,-2.13
2023-12-23T17:28:45.539Z,-2.12
2023-12-23T17:31:14.464Z,-2.13
2023-12-23T17:33:46.510Z,-2.14
2023-12-23T17:36:15.740Z,-2.14
2023-12-23T17:38:45.323Z,-2.13
2023-12-23T17:41:14.750Z,-2.11
2023-12-23T17:43:43.844Z,-2.09
2023-12-23T17:46:15.189Z,-2.09
2023-12-23T17:48:44.316Z,-2.15
2023-12-23T17:51:15.886Z,-2.27
2023-12-23T17:53:44.854Z,-2.32
2023-12-23T17:56:13.815Z,-2.34
2023-12-23T17:58:43.229Z,-2.37
2023-12-23T18:01:12.222Z,-2.37
2023-12-23T18:03:41.101Z,-2.39
2023-12-23T18:06:30.689Z,-2.37
2023-12-23T18:08:59.819Z,-2.36
2023-12-23T18:14:36.834Z,-2.32
2023-12-23T18:17:06.342Z,-2.32
2023-12-23T18:19:37.862Z,-2.34
2023-12-23T18:22:06.822Z,-2.38
2023-12-23T18:24:35.716Z,-2.41
2023-12-23T18:27:06.023Z,-2.43
2023-12-23T18:29:34.837Z,-2.43
2023-12-23T18:32:04.504Z,-2.40
2023-12-23T18:34:35.480Z,-2.39
2023-12-23T18:37:04.425Z,-2.37
2023-12-23T18:39:36.258Z,-2.34
2023-12-23T18:42:05.291Z,-2.30
2023-12-23T18:44:34.390Z,-2.26
2023-12-23T18:47:04.476Z,-2.22
2023-12-23T18:49:33.575Z,-2.18
2023-12-23T18:52:06.509Z,-2.16
2023-12-23T18:54:35.326Z,-2.12
2023-12-23T18:57:06.254Z,-2.12
2023-12-23T18:59:35.315Z,-2.10
2023-12-23T19:02:06.477Z,-2.05
2023-12-23T19:04:39.000Z,-2.01
2023-12-23T19:07:10.121Z,-1.96
2023-12-23T19:09:39.088Z,-1.92
2023-12-23T19:12:08.324Z,-1.90
2023-12-23T19:14:37.775Z,-1.88
2023-12-23T19:17:07.197Z,-1.86
2023-12-23T19:19:39.120Z,-1.87
2023-12-23T19:22:08.666Z,-1.87
2023-12-23T19:24:37.908Z,-1.86
2023-12-23T19:27:07.060Z,-1.85
2023-12-23T19:29:40.158Z,-1.83
2023-12-23T19:32:09.424Z,-1.82
2023-12-23T19:34:38.458Z,-1.81
2023-12-23T19:37:07.374Z,-1.80
2023-12-23T19:39:36.315Z,-1.79
2023-12-23T19:42:07.554Z,-1.78
2023-12-23T19:44:36.823Z,-1.75
2023-12-23T19:47:06.195Z,-1.75
2023-12-23T19:49:35.276Z,-1.74
2023-12-23T19:52:04.276Z,-1.72
2023-12-23T19:54:33.788Z,-1.71
2023-12-23T19:57:04.040Z,-1.70
2023-12-23T19:59:33.277Z,-1.69
2023-12-23T20:02:02.282Z,-1.66
2023-12-23T20:04:31.174Z,-1.65
2023-12-23T20:07:00.188Z,-1.62
2023-12-23T20:09:29.305Z,-1.59
2023-12-23T20:11:59.819Z,-1.55
2023-12-23T20:14:30.404Z,-1.54
2023-12-23T20:17:00.321Z,-1.52
2023-12-23T20:19:29.487Z,-1.49
2023-12-23T20:21:58.530Z,-1.46
2023-12-23T20:24:27.560Z,-1.43
2023-12-23T20:26:56.689Z,-1.39
2023-12-23T20:29:25.772Z,-1.37
2023-12-23T20:31:55.213Z,-1.34
2023-12-23T20:34:24.093Z,-1.34
2023-12-23T20:36:53.146Z,-1.35
2023-12-23T20:39:26.899Z,-1.38
2023-12-23T20:41:58.435Z,-1.41
2023-12-23T20:44:27.623Z,-1.41
2023-12-23T20:47:02.219Z,-1.43
2023-12-23T20:49:31.330Z,-1.43
2023-12-23T20:52:00.979Z,-1.45
2023-12-23T20:54:29.942Z,-1.47
2023-12-23T20:56:59.007Z,-1.50
2023-12-23T20:59:28.518Z,-1.52
2023-12-23T21:01:57.840Z,-1.55
2023-12-23T21:04:26.867Z,-1.56
2023-12-23T21:06:55.724Z,-1.57
2023-12-23T21:09:24.620Z,-1.58
2023-12-23T21:11:56.764Z,-1.60
2023-12-23T21:14:25.790Z,-1.62
2023-12-23T21:16:56.007Z,-1.63
2023-12-23T21:19:25.961Z,-1.62
2023-12-23T21:21:55.060Z,-1.61
2023-12-23T21:24:24.639Z,-1.59
2023-12-23T21:26:53.598Z,-1.63
2023-12-23T21:29:22.670Z,-1.62
2023-12-23T21:31:52.014Z,-1.61
2023-12-23T21:34:20.985Z,-1.60
2023-12-23T21:36:50.204Z,-1.59
2023-12-23T21:39:19.418Z,-1.60
2023-12-23T21:41:48.517Z,-1.61
2023-12-23T21:44:17.494Z,-1.66
2023-12-23T21:46:52.137Z,-1.64
2023-12-23T21:49:21.702Z,-1.63
2023-12-23T21:51:54.296Z,-1.63
2023-12-23T21:54:27.208Z,-1.63
2023-12-23T21:56:56.870Z,-1.63
2023-12-23T21:59:26.456Z,-1.63
2023-12-23T22:01:55.632Z,-1.64
2023-12-23T22:04:25.173Z,-1.68
2023-12-23T22:06:54.478Z,-1.68
2023-12-23T22:09:23.644Z,-1.70
2023-12-23T22:11:52.799Z,-1.69
2023-12-23T22:14:21.859Z,-1.69
2023-12-23T22:16:53.433Z,-1.67
2023-12-23T22:19:22.367Z,-1.68
2023-12-23T22:21:51.504Z,-1.67
2023-12-23T22:24:20.859Z,-1.66
2023-12-23T22:26:49.797Z,-1.66
2023-12-23T22:29:25.142Z,-1.66
2023-12-23T22:31:54.325Z,-1.66
2023-12-23T22:34:23.576Z,-1.65
2023-12-23T22:36:57.714Z,-1.66
2023-12-23T22:39:30.138Z,-1.67
2023-12-23T22:42:05.349Z,-1.67
2023-12-23T22:44:34.373Z,-1.67
2023-12-23T22:47:05.757Z,-1.68
2023-12-23T22:49:34.853Z,-1.68
2023-12-23T22:52:04.448Z,-1.67
2023-12-23T22:54:33.462Z,-1.68
2023-12-23T22:57:02.286Z,-1.70
2023-12-23T22:59:32.139Z,-1.73
2023-12-23T23:05:27.329Z,-1.76
2023-12-23T23:07:55.551Z,-1.80
2023-12-23T23:10:24.883Z,-1.83
2023-12-23T23:12:54.637Z,-1.83
2023-12-23T23:15:23.116Z,-1.83
2023-12-23T23:17:51.518Z,-1.86
2023-12-23T23:20:21.392Z,-1.90
2023-12-23T23:22:49.904Z,-1.94
2023-12-23T23:25:18.444Z,-2.02
2023-12-23T23:27:48.937Z,-2.06
2023-12-23T23:30:17.479Z,-2.12
2023-12-23T23:32:45.793Z,-2.18
2023-12-23T23:35:14.444Z,-2.22
2023-12-23T23:37:43.036Z,-2.22
2023-12-23T23:40:12.736Z,-2.23
2023-12-23T23:42:41.035Z,-2.24
2023-12-23T23:45:14.778Z,-2.23
2023-12-23T23:47:43.214Z,-2.22
2023-12-23T23:50:12.375Z,-2.22
2023-12-23T23:52:40.811Z,-2.21
2023-12-23T23:55:09.870Z,-2.19
2023-12-23T23:57:41.348Z,-2.21
